createdAt,value
2018-09-05T00:02:23.245Z,28.27
2018-09-05T00:04:51.770Z,24.20
2018-09-05T00:07:20.346Z,25.17
2018-09-05T00:09:48.855Z,22.97
2018-09-05T00:12:17.368Z,30.87
2018-09-05T00:14:45.866Z,31.97
2018-09-05T00:17:14.355Z,30.63
2018-09-05T00:19:42.844Z,25.07
2018-09-05T00:22:11.320Z,25.43
2018-09-05T00:24:39.900Z,30.27
2018-09-05T00:27:08.521Z,27.67
2018-09-05T00:29:36.979Z,29.60
2018-09-05T00:32:05.852Z,30.60
2018-09-05T00:34:34.356Z,27.73
2018-09-05T00:37:03.532Z,27.73
2018-09-05T00:39:32.294Z,29.40
2018-09-05T00:42:00.717Z,28.53
2018-09-05T00:44:29.239Z,30.87
2018-09-05T00:46:57.753Z,27.80
2018-09-05T00:49:26.174Z,27.50
2018-09-05T00:51:54.748Z,28.87
2018-09-05T00:54:23.260Z,23.23
2018-09-05T00:56:51.791Z,29.13
2018-09-05T00:59:20.339Z,25.43
2018-09-05T01:01:48.862Z,26.93
2018-09-05T01:04:17.365Z,28.23
2018-09-05T01:06:46.018Z,28.60
2018-09-05T01:09:14.520Z,26.57
2018-09-05T01:11:43.152Z,31.70
2018-09-05T01:14:11.611Z,27.80
2018-09-05T01:16:40.072Z,30.40
2018-09-05T01:19:08.645Z,29.63
2018-09-05T01:21:37.121Z,28.13
2018-09-05T01:24:06.130Z,29.77
2018-09-05T01:26:34.901Z,30.37
2018-09-05T01:29:03.431Z,27.67
2018-09-05T01:31:32.623Z,27.70
2018-09-05T01:34:01.189Z,25.03
2018-09-05T01:36:29.671Z,25.90
2018-09-05T01:38:58.268Z,29.13
2018-09-05T01:41:26.816Z,30.10
2018-09-05T01:43:55.606Z,30.00
2018-09-05T01:46:24.082Z,26.43
2018-09-05T01:48:52.589Z,26.90
2018-09-05T01:51:21.092Z,33.63
2018-09-05T01:53:49.535Z,27.00
2018-09-05T01:56:18.426Z,33.23
2018-09-05T01:58:47.023Z,30.73
2018-09-05T02:01:15.470Z,33.33
2018-09-05T02:03:44.077Z,33.60
2018-09-05T02:06:12.573Z,25.20
2018-09-05T02:08:41.349Z,24.40
2018-09-05T02:11:09.898Z,25.50
2018-09-05T02:13:38.455Z,28.97
2018-09-05T02:16:07.021Z,28.97
2018-09-05T02:18:35.488Z,25.00
2018-09-05T02:21:04.267Z,35.03
2018-09-05T02:23:32.873Z,30.73
2018-09-05T02:26:01.459Z,29.80
2018-09-05T02:28:30.029Z,29.27
2018-09-05T02:30:58.686Z,26.60
2018-09-05T02:33:27.400Z,23.13
2018-09-05T02:35:55.890Z,27.23
2018-09-05T02:38:24.378Z,32.57
2018-09-05T02:40:53.161Z,33.97
2018-09-05T02:43:26.933Z,27.57
2018-09-05T02:45:55.580Z,32.63
2018-09-05T02:48:24.162Z,31.60
2018-09-05T02:50:52.825Z,34.53
2018-09-05T02:53:21.491Z,36.27
2018-09-05T02:55:55.235Z,39.93
2018-09-05T02:58:23.973Z,40.53
2018-09-05T03:00:52.487Z,42.67
2018-09-05T03:03:20.958Z,39.87
2018-09-05T03:05:49.441Z,30.43
2018-09-05T03:08:18.061Z,32.07
2018-09-05T03:10:46.708Z,30.40
2018-09-05T03:13:15.204Z,26.47
2018-09-05T03:15:43.748Z,32.00
2018-09-05T03:18:12.570Z,27.37
2018-09-05T03:20:41.169Z,31.13
2018-09-05T03:23:10.373Z,37.07
2018-09-05T03:25:39.457Z,39.27
2018-09-05T03:28:08.707Z,36.90
2018-09-05T03:30:37.453Z,34.23
2018-09-05T03:33:06.215Z,37.03
2018-09-05T03:35:34.715Z,35.50
2018-09-05T03:38:03.162Z,38.70
2018-09-05T03:40:31.729Z,36.63
2018-09-05T03:43:00.192Z,35.90
2018-09-05T03:45:28.745Z,41.50
2018-09-05T03:47:57.329Z,44.60
2018-09-05T03:50:53.502Z,41.93
2018-09-05T03:53:21.989Z,41.20
2018-09-05T03:55:50.497Z,35.83
2018-09-05T03:58:19.146Z,37.90
2018-09-05T04:00:47.696Z,37.80
2018-09-05T04:03:16.174Z,47.27
2018-09-05T04:05:44.635Z,41.60
2018-09-05T04:08:13.299Z,39.90
2018-09-05T04:17:24.353Z,45.03
2018-09-05T04:19:53.054Z,39.60
2018-09-05T04:22:21.540Z,38.73
2018-09-05T04:24:50.107Z,44.70
2018-09-05T04:27:18.638Z,39.70
2018-09-05T04:29:47.300Z,44.30
2018-09-05T04:32:15.756Z,39.60
2018-09-05T04:34:44.219Z,48.07
2018-09-05T04:37:12.834Z,38.37
2018-09-05T04:39:41.326Z,37.13
2018-09-05T04:42:09.950Z,35.57
2018-09-05T04:44:38.482Z,41.33
2018-09-05T04:47:07.212Z,45.63
2018-09-05T04:49:35.745Z,44.73
2018-09-05T04:52:04.214Z,40.43
2018-09-05T04:54:32.708Z,43.23
2018-09-05T04:57:01.760Z,44.30
2018-09-05T04:59:30.643Z,40.30
2018-09-05T05:01:59.184Z,36.97
2018-09-05T05:04:27.671Z,39.67
2018-09-05T05:06:56.118Z,42.30
2018-09-05T05:09:24.620Z,40.67
2018-09-05T05:11:53.197Z,44.13
2018-09-05T05:14:21.861Z,44.70
2018-09-05T05:16:50.336Z,42.73
2018-09-05T05:19:18.878Z,44.47
2018-09-05T05:21:47.345Z,47.67
2018-09-05T05:24:15.808Z,44.63
2018-09-05T05:26:44.306Z,43.70
2018-09-05T05:29:12.803Z,40.93
2018-09-05T05:31:41.695Z,38.13
2018-09-05T05:34:10.297Z,41.20
2018-09-05T05:36:38.758Z,42.37
2018-09-05T05:39:10.746Z,45.73
2018-09-05T05:41:39.276Z,39.20
2018-09-05T05:44:07.830Z,42.83
2018-09-05T05:46:36.526Z,48.07
2018-09-05T05:49:05.182Z,41.90
2018-09-05T05:51:33.732Z,44.87
2018-09-05T05:54:02.365Z,48.30
2018-09-05T05:56:31.103Z,48.73
2018-09-05T05:58:59.675Z,42.30
2018-09-05T06:01:28.249Z,46.67
2018-09-05T06:03:56.794Z,44.60
2018-09-05T06:06:25.435Z,42.83
2018-09-05T06:08:53.929Z,45.03
2018-09-05T06:11:22.435Z,46.63
2018-09-05T06:13:51.048Z,44.23
2018-09-05T06:16:19.582Z,46.00
2018-09-05T06:18:48.047Z,40.33
2018-09-05T06:21:16.867Z,51.83
2018-09-05T06:23:45.443Z,46.57
2018-09-05T06:26:13.947Z,47.70
2018-09-05T06:28:42.672Z,49.00
2018-09-05T06:31:11.417Z,54.00
2018-09-05T06:33:39.802Z,58.07
2018-09-05T06:36:08.470Z,57.13
2018-09-05T06:38:37.039Z,58.13
2018-09-05T06:41:05.825Z,61.27
2018-09-05T06:43:34.405Z,60.77
2018-09-05T06:46:32.618Z,58.73
2018-09-05T06:49:01.166Z,59.53
2018-09-05T06:51:29.748Z,69.57
2018-09-05T06:53:58.240Z,62.17
2018-09-05T06:56:26.808Z,74.63
2018-09-05T06:58:55.299Z,62.47
2018-09-05T07:01:23.781Z,70.30
2018-09-05T07:03:52.408Z,66.00
2018-09-05T07:06:20.921Z,65.77
2018-09-05T07:08:49.419Z,68.33
2018-09-05T07:11:17.904Z,64.47
2018-09-05T07:13:46.470Z,74.63
2018-09-05T07:16:15.058Z,77.00
2018-09-05T07:18:43.620Z,94.97
2018-09-05T07:21:12.289Z,95.17
2018-09-05T07:23:40.748Z,100.70
2018-09-05T07:26:09.339Z,102.83
2018-09-05T07:28:37.795Z,90.83
2018-09-05T07:31:06.434Z,91.23
2018-09-05T07:33:34.992Z,107.70
2018-09-05T07:36:04.022Z,96.87
2018-09-05T07:38:32.559Z,100.27
2018-09-05T07:41:01.019Z,106.33
2018-09-05T07:47:09.164Z,97.37
2018-09-05T07:49:37.679Z,98.20
2018-09-05T07:52:06.231Z,96.93
2018-09-05T07:54:34.895Z,96.53
2018-09-05T07:57:03.400Z,91.93
2018-09-05T07:59:31.872Z,84.87
2018-09-05T08:02:00.358Z,99.23
2018-09-05T08:04:28.871Z,93.40
2018-09-05T08:06:57.426Z,92.27
2018-09-05T08:09:26.010Z,89.17
2018-09-05T08:11:54.483Z,82.33
2018-09-05T08:14:22.964Z,80.10
2018-09-05T08:16:51.498Z,89.63
2018-09-05T08:19:20.224Z,87.77
2018-09-05T08:21:48.764Z,86.40
2018-09-05T08:24:17.658Z,92.90
2018-09-05T08:26:46.165Z,87.67
2018-09-05T08:29:14.750Z,90.60
2018-09-05T08:31:43.257Z,89.93
2018-09-05T08:34:11.729Z,89.37
2018-09-05T08:36:40.378Z,88.83
2018-09-05T08:39:12.304Z,89.43
2018-09-05T08:41:40.885Z,90.50
2018-09-05T08:44:09.440Z,83.37
2018-09-05T08:46:37.938Z,90.77
2018-09-05T08:49:06.769Z,84.10
2018-09-05T08:51:35.209Z,87.50
2018-09-05T08:54:03.731Z,84.07
2018-09-05T08:56:32.486Z,86.40
2018-09-05T08:59:00.912Z,88.27
2018-09-05T09:01:29.506Z,89.23
2018-09-05T09:03:58.081Z,84.37
2018-09-05T09:06:26.606Z,85.73
2018-09-05T09:08:55.489Z,91.67
2018-09-05T09:11:23.921Z,83.23
2018-09-05T09:13:52.496Z,84.47
2018-09-05T09:16:21.754Z,72.40
2018-09-05T09:18:50.749Z,87.17
2018-09-05T09:21:19.351Z,85.63
2018-09-05T09:23:47.868Z,82.97
2018-09-05T09:26:16.437Z,65.90
2018-09-05T09:28:44.892Z,84.97
2018-09-05T09:31:13.306Z,86.73
2018-09-05T09:33:42.164Z,81.83
2018-09-05T09:36:11.186Z,88.67
2018-09-05T09:38:39.733Z,78.30
2018-09-05T09:41:08.229Z,84.73
2018-09-05T09:43:36.712Z,85.67
2018-09-05T09:46:05.481Z,93.07
2018-09-05T09:48:34.106Z,88.03
2018-09-05T09:51:02.658Z,93.27
2018-09-05T09:53:31.229Z,87.73
2018-09-05T09:55:59.741Z,68.87
2018-09-05T09:58:28.189Z,85.33
2018-09-05T10:01:01.985Z,70.07
2018-09-05T10:03:35.849Z,89.13
2018-09-05T10:06:09.617Z,88.10
2018-09-05T10:09:41.181Z,88.03
2018-09-05T10:12:15.081Z,87.93
2018-09-05T10:14:52.849Z,90.00
2018-09-05T10:17:26.560Z,89.67
2018-09-05T10:19:56.768Z,78.70
2018-09-05T10:22:25.465Z,65.93
2018-09-05T10:24:55.018Z,87.93
2018-09-05T10:27:24.318Z,77.87
2018-09-05T10:29:53.154Z,69.03
2018-09-05T10:32:21.997Z,80.80
2018-09-05T10:34:50.417Z,63.73
2018-09-05T10:37:18.983Z,78.37
2018-09-05T10:39:47.525Z,60.90
2018-09-05T10:42:16.012Z,69.30
2018-09-05T10:44:44.523Z,62.17
2018-09-05T10:47:12.973Z,70.30
2018-09-05T10:49:57.140Z,61.37
2018-09-05T10:52:25.726Z,76.17
2018-09-05T10:54:54.250Z,58.80
2018-09-05T10:57:22.741Z,73.10
2018-09-05T10:59:51.170Z,58.67
2018-09-05T11:02:19.730Z,71.30
2018-09-05T11:04:48.564Z,54.37
2018-09-05T11:07:17.121Z,62.03
2018-09-05T11:09:45.714Z,47.83
2018-09-05T11:12:14.152Z,64.80
2018-09-05T11:14:42.657Z,50.53
2018-09-05T11:17:11.469Z,57.53
2018-09-05T11:19:39.981Z,47.20
2018-09-05T11:22:08.526Z,56.53
2018-09-05T11:24:37.104Z,43.77
2018-09-05T11:27:05.802Z,50.37
2018-09-05T11:29:44.609Z,43.10
2018-09-05T11:32:13.099Z,51.90
2018-09-05T11:34:42.278Z,40.73
2018-09-05T11:37:10.748Z,55.23
2018-09-05T11:39:39.370Z,54.27
2018-09-05T11:42:08.046Z,44.30
2018-09-05T11:44:36.714Z,55.23
2018-09-05T11:47:05.452Z,41.90
2018-09-05T11:49:34.008Z,43.23
2018-09-05T11:52:02.589Z,48.90
2018-09-05T11:54:31.083Z,37.50
2018-09-05T11:56:59.637Z,48.10
2018-09-05T11:59:28.122Z,41.23
2018-09-05T12:01:56.807Z,32.13
2018-09-05T12:04:25.294Z,40.53
2018-09-05T12:06:54.229Z,35.50
2018-09-05T12:09:22.775Z,45.50
2018-09-05T12:11:51.270Z,33.10
2018-09-05T12:14:19.810Z,51.80
2018-09-05T12:16:48.364Z,39.40
2018-09-05T12:19:17.117Z,35.50
2018-09-05T12:21:45.693Z,43.30
2018-09-05T12:24:14.161Z,36.90
2018-09-05T12:26:42.595Z,44.10
2018-09-05T12:29:12.637Z,30.77
2018-09-05T12:31:42.385Z,46.80
2018-09-05T12:34:12.713Z,36.97
2018-09-05T12:36:41.277Z,31.73
2018-09-05T12:39:12.355Z,32.50
2018-09-05T12:41:41.223Z,33.93
2018-09-05T12:44:09.984Z,33.93
2018-09-05T12:46:38.822Z,39.13
2018-09-05T12:49:07.378Z,32.93
2018-09-05T12:51:36.012Z,30.60
2018-09-05T12:54:04.890Z,29.63
2018-09-05T12:56:33.413Z,31.97
2018-09-05T12:59:01.876Z,34.33
2018-09-05T13:01:30.403Z,37.63
2018-09-05T13:03:59.025Z,39.13
2018-09-05T13:06:27.553Z,30.03
2018-09-05T13:08:56.411Z,34.70
2018-09-05T13:11:24.984Z,33.57
2018-09-05T13:13:53.499Z,30.23
2018-09-05T13:16:21.966Z,34.90
2018-09-05T13:18:50.483Z,31.07
2018-09-05T13:21:19.041Z,30.23
2018-09-05T13:23:47.575Z,29.80
2018-09-05T13:26:16.171Z,33.33
2018-09-05T13:28:44.724Z,24.83
2018-09-05T13:31:13.180Z,30.93
2018-09-05T13:33:41.662Z,27.83
2018-09-05T13:36:10.154Z,32.10
2018-09-05T13:38:38.680Z,30.57
2018-09-05T13:41:07.198Z,32.33
2018-09-05T13:43:35.781Z,26.33
2018-09-05T13:46:04.291Z,25.20
2018-09-05T13:48:32.773Z,27.43
2018-09-05T13:51:01.401Z,28.13
2018-09-05T13:53:30.172Z,31.70
2018-09-05T13:55:59.030Z,28.70
2018-09-05T13:58:28.020Z,23.17
2018-09-05T14:00:56.491Z,29.97
2018-09-05T14:03:25.405Z,25.73
2018-09-05T14:05:53.859Z,23.40
2018-09-05T14:08:22.345Z,21.37
2018-09-05T14:10:50.807Z,22.20
2018-09-05T14:13:19.313Z,22.00
2018-09-05T14:15:53.716Z,20.97
2018-09-05T14:18:22.267Z,19.80
2018-09-05T14:20:52.061Z,21.63
2018-09-05T14:23:21.119Z,17.13
2018-09-05T14:25:59.238Z,21.47
2018-09-05T14:28:27.957Z,19.87
2018-09-05T14:30:56.883Z,19.63
2018-09-05T14:33:25.475Z,20.70
2018-09-05T14:35:54.170Z,21.97
2018-09-05T14:38:22.685Z,23.03
2018-09-05T14:40:51.168Z,21.77
2018-09-05T14:43:19.736Z,22.73
2018-09-05T14:45:48.297Z,23.43
2018-09-05T14:48:16.763Z,22.33
2018-09-05T14:50:45.364Z,26.13
2018-09-05T14:53:13.856Z,22.97
2018-09-05T14:55:59.918Z,23.10
2018-09-05T14:58:28.699Z,27.77
2018-09-05T15:00:57.247Z,25.00
2018-09-05T15:03:25.811Z,32.47
2018-09-05T15:05:54.470Z,26.30
2018-09-05T15:08:22.960Z,35.57
2018-09-05T15:10:51.840Z,25.17
2018-09-05T15:13:20.382Z,32.73
2018-09-05T15:15:48.934Z,27.13
2018-09-05T15:18:21.976Z,32.07
2018-09-05T15:20:50.516Z,30.60
2018-09-05T15:23:19.417Z,37.90
2018-09-05T15:25:48.225Z,25.80
2018-09-05T15:28:16.657Z,32.07
2018-09-05T15:30:45.323Z,24.53
2018-09-05T15:33:13.816Z,28.20
2018-09-05T15:35:42.417Z,26.50
2018-09-05T15:38:10.998Z,34.90
2018-09-05T15:40:39.573Z,26.67
2018-09-05T15:43:08.062Z,24.93
2018-09-05T15:45:36.549Z,27.00
2018-09-05T15:48:05.637Z,29.07
2018-09-05T15:50:34.646Z,29.03
2018-09-05T15:53:03.219Z,27.63
2018-09-05T15:55:39.585Z,24.23
2018-09-05T15:58:08.148Z,29.37
2018-09-05T16:00:36.669Z,25.20
2018-09-05T16:03:05.251Z,31.33
2018-09-05T16:05:33.778Z,28.30
2018-09-05T16:08:02.287Z,34.53
2018-09-05T16:10:30.862Z,26.67
2018-09-05T16:12:59.460Z,33.03
2018-09-05T16:15:28.131Z,28.53
2018-09-05T16:17:56.807Z,37.77
2018-09-05T16:20:27.473Z,28.93
2018-09-05T16:22:56.125Z,37.63
2018-09-05T16:25:24.673Z,27.53
2018-09-05T16:27:53.210Z,33.60
2018-09-05T16:30:21.740Z,23.37
2018-09-05T16:32:50.291Z,30.57
2018-09-05T16:35:18.852Z,24.70
2018-09-05T16:37:47.432Z,29.97
2018-09-05T16:40:15.941Z,23.93
2018-09-05T16:42:44.413Z,21.40
2018-09-05T16:45:13.001Z,25.50
2018-09-05T16:47:41.514Z,19.80
2018-09-05T16:50:10.036Z,23.33
2018-09-05T16:52:39.400Z,25.13
2018-09-05T16:55:07.936Z,22.80
2018-09-05T16:57:44.185Z,22.40
2018-09-05T17:00:12.687Z,19.20
2018-09-05T17:02:41.345Z,19.17
2018-09-05T17:05:09.806Z,18.10
2018-09-05T17:07:38.454Z,22.07
2018-09-05T17:10:06.978Z,18.53
2018-09-05T17:12:35.422Z,20.87
2018-09-05T17:15:04.137Z,18.40
2018-09-05T17:17:32.751Z,23.20
2018-09-05T17:20:01.259Z,19.63
2018-09-05T17:22:29.762Z,24.50
2018-09-05T17:24:58.219Z,15.33
2018-09-05T17:27:26.932Z,18.53
2018-09-05T17:30:16.909Z,17.90
2018-09-05T17:32:45.481Z,24.47
2018-09-05T17:35:14.066Z,17.53
2018-09-05T17:37:42.647Z,20.37
2018-09-05T17:40:11.694Z,19.47
2018-09-05T17:42:40.221Z,25.07
2018-09-05T17:45:08.734Z,16.70
2018-09-05T17:47:51.261Z,24.50
2018-09-05T17:50:33.004Z,17.53
2018-09-05T17:53:01.485Z,20.20
2018-09-05T17:55:30.133Z,15.63
2018-09-05T17:57:58.832Z,20.77
2018-09-05T18:00:27.505Z,14.60
2018-09-05T18:02:56.022Z,21.47
2018-09-05T18:05:24.516Z,19.23
2018-09-05T18:07:52.995Z,14.73
2018-09-05T18:10:21.565Z,16.07
2018-09-05T18:12:50.166Z,20.63
2018-09-05T18:15:18.730Z,16.27
2018-09-05T18:17:47.342Z,15.37
2018-09-05T18:20:15.893Z,18.47
2018-09-05T18:22:44.467Z,18.60
2018-09-05T18:25:13.100Z,18.80
2018-09-05T18:27:41.675Z,18.33
2018-09-05T18:30:10.293Z,18.33
2018-09-05T18:32:38.957Z,16.37
2018-09-05T18:35:07.544Z,19.50
2018-09-05T18:37:36.617Z,20.43
2018-09-05T18:40:05.674Z,16.10
2018-09-05T18:42:34.395Z,14.27
2018-09-05T18:45:03.119Z,19.77
2018-09-05T18:47:31.851Z,16.03
2018-09-05T18:50:00.341Z,15.63
2018-09-05T18:52:29.261Z,20.90
2018-09-05T18:54:57.874Z,14.13
2018-09-05T18:57:26.460Z,18.87
2018-09-05T18:59:54.993Z,17.37
2018-09-05T19:02:23.845Z,16.70
2018-09-05T19:04:52.628Z,16.80
2018-09-05T19:07:21.092Z,15.33
2018-09-05T19:09:49.591Z,14.83
2018-09-05T19:12:18.149Z,17.83
2018-09-05T19:14:46.752Z,14.47
2018-09-05T19:17:15.383Z,18.00
2018-09-05T19:19:44.628Z,16.10
2018-09-05T19:22:13.240Z,19.83
2018-09-05T19:24:41.882Z,12.77
2018-09-05T19:27:10.455Z,15.40
2018-09-05T19:29:39.171Z,14.83
2018-09-05T19:32:07.797Z,13.07
2018-09-05T19:34:36.297Z,15.87
2018-09-05T19:37:04.803Z,19.03
2018-09-05T19:39:33.408Z,17.97
2018-09-05T19:42:31.424Z,17.20
2018-09-05T19:44:59.917Z,13.77
2018-09-05T19:47:28.526Z,13.47
2018-09-05T19:49:57.182Z,11.67
2018-09-05T19:52:26.215Z,16.90
2018-09-05T19:54:54.919Z,17.80
2018-09-05T19:57:23.704Z,18.80
2018-09-05T19:59:52.205Z,15.50
2018-09-05T20:02:20.737Z,19.17
2018-09-05T20:04:49.404Z,16.00
2018-09-05T20:07:18.040Z,16.23
2018-09-05T20:09:46.641Z,16.13
2018-09-05T20:12:15.233Z,16.13
2018-09-05T20:14:43.794Z,16.33
2018-09-05T20:17:17.150Z,14.83
2018-09-05T20:19:45.701Z,16.90
2018-09-05T20:22:14.913Z,18.40
2018-09-05T20:24:43.449Z,13.17
2018-09-05T20:27:12.044Z,20.53
2018-09-05T20:29:40.543Z,17.57
2018-09-05T20:32:09.061Z,22.03
2018-09-05T20:34:37.759Z,18.13
2018-09-05T20:37:06.248Z,19.23
2018-09-05T20:39:35.045Z,13.73
2018-09-05T20:42:03.622Z,20.97
2018-09-05T20:44:40.171Z,15.67
2018-09-05T20:47:08.689Z,14.60
2018-09-05T20:49:37.183Z,13.73
2018-09-05T20:52:05.994Z,16.20
2018-09-05T20:54:34.518Z,16.17
2018-09-05T20:57:06.479Z,13.63
2018-09-05T20:59:38.280Z,18.60
2018-09-05T21:02:06.808Z,18.23
2018-09-05T21:04:35.502Z,17.40
2018-09-05T21:07:06.224Z,16.17
2018-09-05T21:09:34.707Z,13.53
2018-09-05T21:12:03.150Z,20.27
2018-09-05T21:14:31.647Z,16.40
2018-09-05T21:17:00.277Z,12.43
2018-09-05T21:19:28.779Z,16.07
2018-09-05T21:21:57.258Z,18.93
2018-09-05T21:24:25.732Z,20.80
2018-09-05T21:26:54.415Z,22.93
2018-09-05T21:29:23.047Z,30.30
2018-09-05T21:31:51.647Z,30.90
2018-09-05T21:34:20.142Z,29.23
2018-09-05T21:36:48.653Z,32.67
2018-09-05T21:39:17.093Z,32.67
2018-09-05T21:41:45.758Z,29.77
2018-09-05T21:44:14.246Z,31.77
2018-09-05T21:46:42.736Z,32.90
2018-09-05T21:49:11.196Z,31.93
2018-09-05T21:51:39.645Z,27.30
2018-09-05T21:54:08.084Z,25.20
2018-09-05T21:56:36.629Z,31.53
2018-09-05T21:59:05.423Z,26.50
2018-09-05T22:01:47.498Z,22.93
2018-09-05T22:04:15.955Z,22.43
2018-09-05T22:06:44.482Z,25.00
2018-09-05T22:09:12.943Z,20.70
2018-09-05T22:11:41.479Z,27.80
2018-09-05T22:14:10.051Z,23.23
2018-09-05T22:16:38.509Z,21.63
2018-09-05T22:19:07.218Z,24.70
2018-09-05T22:21:35.827Z,26.10
2018-09-05T22:24:04.336Z,27.00
2018-09-05T22:26:32.768Z,29.70
2018-09-05T22:29:01.265Z,28.97
2018-09-05T22:31:30.076Z,34.43
2018-09-05T22:33:58.541Z,32.17
2018-09-05T22:36:27.005Z,34.10
2018-09-05T22:38:55.489Z,34.33
2018-09-05T22:41:24.051Z,34.13
2018-09-05T22:46:05.488Z,32.13
2018-09-05T22:50:57.060Z,31.37
2018-09-05T22:53:41.648Z,32.17
2018-09-05T22:56:26.447Z,30.20
2018-09-05T23:01:11.747Z,27.83
2018-09-05T23:04:06.267Z,29.73
2018-09-05T23:07:18.187Z,30.53
2018-09-05T23:09:57.827Z,25.73
2018-09-05T23:12:37.561Z,22.53
2018-09-05T23:15:17.308Z,24.50
2018-09-05T23:21:35.425Z,23.50
2018-09-05T23:24:06.317Z,31.17
2018-09-05T23:26:34.968Z,32.80
2018-09-05T23:29:03.467Z,31.50
2018-09-05T23:31:32.024Z,31.20
2018-09-05T23:34:00.553Z,32.90
2018-09-05T23:36:29.106Z,38.90
2018-09-05T23:38:57.563Z,37.80
2018-09-05T23:41:26.037Z,37.03
2018-09-05T23:43:54.848Z,45.33
2018-09-05T23:46:23.330Z,61.63
2018-09-05T23:48:51.768Z,64.47
2018-09-05T23:51:39.443Z,67.13
2018-09-05T23:54:07.924Z,76.63
2018-09-05T23:56:36.440Z,80.90
2018-09-05T23:59:06.726Z,102.33
